Time;durP1;ratioP1;P1;durP2;ratioP2;P2;SDS_P1;SDS_P2;PMS_P1;PMS_P2;Temp;Humidity;BMP_temperature;BMP_pressure;BME280_temperature;BME280_humidity;BME280_pressure;Samples;Min_cycle;Max_cycle;Signal;HPM_P1;HPM_P2
2021/10/19 00:01:36;;;;;;;10.38;7.50;;;;;;;17.21;35.55;100397.27;1723670;82;21085;-64
2021/10/19 00:04:03;;;;;;;13.80;7.28;;;;;;;17.29;35.53;100398.79;1721771;82;21048;-65
2021/10/19 00:06:30;;;;;;;12.50;7.72;;;;;;;17.41;35.44;100399.11;1721693;82;22285;-64
2021/10/19 00:08:57;;;;;;;12.90;7.87;;;;;;;17.00;36.05;100397.22;1721149;82;20981;-64
2021/10/19 00:11:24;;;;;;;13.83;6.95;;;;;;;17.20;35.83;100400.94;1720672;82;21113;-64
2021/10/19 00:13:50;;;;;;;12.33;7.85;;;;;;;17.08;36.03;100403.49;1720490;83;21108;-70
2021/10/19 00:16:17;;;;;;;14.58;7.70;;;;;;;16.96;36.22;100401.32;1716952;82;20941;-65
2021/10/19 00:18:44;;;;;;;13.85;7.67;;;;;;;17.06;36.11;100396.86;1705710;82;22133;-64
2021/10/19 00:21:10;;;;;;;12.82;8.00;;;;;;;17.28;35.86;100394.55;1705452;83;20992;-69
2021/10/19 00:23:37;;;;;;;14.80;8.33;;;;;;;17.24;35.82;100397.63;1720911;82;21133;-65
2021/10/19 00:26:03;;;;;;;12.07;8.05;;;;;;;17.15;35.99;100391.56;1709376;82;20932;-65
2021/10/19 00:28:30;;;;;;;17.35;8.18;;;;;;;16.97;36.24;100388.44;1711271;82;21547;-65
2021/10/19 00:30:57;;;;;;;14.03;7.87;;;;;;;16.95;36.36;100386.55;1721439;82;21546;-64
2021/10/19 00:33:24;;;;;;;12.25;7.40;;;;;;;16.88;36.49;100383.20;1719302;83;21076;-64
2021/10/19 00:35:50;;;;;;;11.80;7.17;;;;;;;16.83;36.65;100373.33;1714178;83;21156;-65
2021/10/19 00:38:17;;;;;;;14.93;8.03;;;;;;;17.00;36.47;100375.63;1720877;82;20913;-66
2021/10/19 00:40:45;;;;;;;13.40;8.38;;;;;;;17.02;36.32;100384.12;1720609;82;21013;-64
2021/10/19 00:43:11;;;;;;;13.05;7.65;;;;;;;17.12;36.19;100384.93;1718195;82;21087;-71
2021/10/19 00:45:38;;;;;;;17.23;9.20;;;;;;;16.91;36.44;100388.83;1720573;82;21018;-64
2021/10/19 00:48:06;;;;;;;12.90;8.63;;;;;;;16.41;37.23;100393.41;1721085;82;21538;-65
2021/10/19 00:50:33;;;;;;;15.85;8.55;;;;;;;16.54;37.37;100395.38;1720283;83;21550;-68
2021/10/19 00:53:00;;;;;;;14.60;7.95;;;;;;;16.71;37.38;100390.87;1720190;83;20898;-64
2021/10/19 00:55:28;;;;;;;13.35;7.95;;;;;;;16.43;37.83;100393.98;1719438;83;21521;-69
2021/10/19 00:57:55;;;;;;;12.43;8.63;;;;;;;16.42;38.00;100391.06;1721056;82;22397;-64
2021/10/19 01:00:21;;;;;;;12.70;8.73;;;;;;;16.52;37.93;100382.16;1720337;82;21126;-64
2021/10/19 01:02:49;;;;;;;12.93;8.78;;;;;;;16.60;37.86;100375.30;1720243;82;20918;-66
2021/10/19 01:05:16;;;;;;;14.68;8.65;;;;;;;16.54;37.88;100375.64;1723000;81;21051;-71
2021/10/19 01:07:43;;;;;;;16.65;8.90;;;;;;;16.53;37.83;100370.61;1723458;82;21068;-63
2021/10/19 01:10:09;;;;;;;13.98;8.33;;;;;;;16.36;37.90;100369.56;1720313;83;20997;-64
2021/10/19 01:12:39;;;;;;;13.85;8.05;;;;;;;16.31;37.96;100376.80;1721265;82;20925;-70
2021/10/19 01:15:14;;;;;;;15.40;8.78;;;;;;;16.25;37.81;100374.55;1722906;82;21012;-64
2021/10/19 01:17:45;;;;;;;16.10;9.28;;;;;;;16.15;37.93;100374.22;1722481;82;21059;-65
2021/10/19 01:20:29;;;;;;;15.45;8.85;;;;;;;16.03;38.06;100372.02;1723040;82;21024;-64
2021/10/19 01:22:58;;;;;;;15.95;8.53;;;;;;;15.90;38.26;100362.91;1722542;82;21127;-67
2021/10/19 01:25:26;;;;;;;17.07;8.83;;;;;;;15.80;38.42;100371.30;1724266;82;21126;-66
2021/10/19 01:27:59;;;;;;;18.20;8.90;;;;;;;15.74;38.59;100368.20;1723345;82;21537;-66
2021/10/19 01:30:26;;;;;;;20.17;9.43;;;;;;;15.79;38.65;100380.18;1723952;82;21037;-65
2021/10/19 01:32:54;;;;;;;16.67;9.73;;;;;;;15.67;38.99;100384.01;1722954;82;21476;-68
2021/10/19 01:35:36;;;;;;;15.25;9.53;;;;;;;15.60;39.36;100378.47;1722991;83;22176;-65
2021/10/19 01:38:05;;;;;;;14.87;9.58;;;;;;;15.49;39.86;100380.78;1710415;82;21471;-65
2021/10/19 01:40:32;;;;;;;17.35;10.13;;;;;;;15.64;40.03;100375.20;1722172;83;21079;-72
2021/10/19 01:42:58;;;;;;;22.67;9.45;;;;;;;15.90;39.80;100372.11;1722743;82;21111;-65
2021/10/19 01:45:25;;;;;;;14.25;9.75;;;;;;;15.99;39.79;100369.02;1723689;82;21012;-67
2021/10/19 01:47:51;;;;;;;15.15;10.88;;;;;;;15.94;39.96;100366.72;1723224;82;21041;-71
2021/10/19 01:50:18;;;;;;;15.18;10.30;;;;;;;15.95;40.05;100372.30;1723965;82;21542;-65
2021/10/19 01:52:46;;;;;;;14.23;9.45;;;;;;;16.24;39.75;100372.91;1722018;83;20998;-69
2021/10/19 01:55:12;;;;;;;14.65;8.80;;;;;;;16.32;39.71;100380.23;1723142;82;21640;-65
2021/10/19 01:57:40;;;;;;;15.08;9.78;;;;;;;16.21;39.91;100386.52;1723921;82;21439;-66
2021/10/19 02:00:09;;;;;;;13.65;8.80;;;;;;;15.86;40.61;100384.08;1722614;82;20953;-68
2021/10/19 02:02:40;;;;;;;15.10;9.45;;;;;;;16.24;40.31;100382.12;1717887;83;21079;-70
2021/10/19 02:05:08;;;;;;;15.78;10.25;;;;;;;16.18;40.28;100386.14;1722667;82;21095;-66
2021/10/19 02:07:35;;;;;;;17.57;10.68;;;;;;;16.35;40.17;100385.86;1720878;82;21009;-66
2021/10/19 02:10:05;;;;;;;14.35;9.63;;;;;;;16.60;39.78;100385.02;1720968;82;21040;-72
2021/10/19 02:12:32;;;;;;;19.27;9.93;;;;;;;16.62;39.75;100396.11;1698439;83;21371;-67
2021/10/19 02:14:59;;;;;;;14.65;9.90;;;;;;;16.53;39.92;100389.83;1721533;82;21143;-65
2021/10/19 02:17:26;;;;;;;13.38;9.00;;;;;;;16.67;39.78;100381.29;1704585;82;21114;-65
2021/10/19 02:19:52;;;;;;;14.03;9.58;;;;;;;16.65;39.88;100378.06;1718784;82;21503;-65
2021/10/19 02:22:20;;;;;;;18.32;10.13;;;;;;;16.67;39.89;100381.29;1719539;83;21060;-69
2021/10/19 02:24:47;;;;;;;14.75;9.50;;;;;;;16.73;39.89;100379.11;1720759;82;21059;-64
2021/10/19 02:27:13;;;;;;;13.43;9.13;;;;;;;16.83;39.77;100384.38;1721209;82;21124;-65
2021/10/19 02:29:40;;;;;;;15.38;9.10;;;;;;;17.07;39.49;100390.04;1721431;82;21415;-65
2021/10/19 02:32:06;;;;;;;17.30;10.45;;;;;;;16.77;39.89;100384.22;1721486;82;20985;-67
2021/10/19 02:34:33;;;;;;;24.82;10.20;;;;;;;16.83;39.97;100385.70;1663445;84;21083;-68
2021/10/19 02:36:59;;;;;;;14.38;9.85;;;;;;;16.91;39.95;100383.56;1721789;82;21958;-65
2021/10/19 02:39:26;;;;;;;13.95;9.68;;;;;;;16.82;40.07;100388.02;1720766;82;21136;-65
2021/10/19 02:41:52;;;;;;;23.40;10.75;;;;;;;16.72;40.19;100391.16;1720388;82;20941;-66
2021/10/19 02:44:19;;;;;;;16.87;10.13;;;;;;;16.91;39.82;100383.56;1697571;82;21588;-71
2021/10/19 02:46:45;;;;;;;19.77;10.85;;;;;;;16.94;39.62;100394.17;1697746;82;22400;-66
2021/10/19 02:49:12;;;;;;;17.10;10.38;;;;;;;16.86;39.68;100397.91;1698252;82;21060;-67
2021/10/19 02:51:38;;;;;;;18.32;11.28;;;;;;;16.87;39.60;100398.20;1705710;82;21173;-66
2021/10/19 02:54:05;;;;;;;18.65;11.38;;;;;;;16.73;39.85;100401.48;1700035;82;21028;-68
2021/10/19 02:56:32;;;;;;;15.15;9.90;;;;;;;16.58;40.22;100403.64;1699152;82;21131;-69
2021/10/19 02:58:58;;;;;;;16.48;10.28;;;;;;;16.47;40.54;100406.99;1701688;82;21575;-66
2021/10/19 03:01:25;;;;;;;16.12;10.60;;;;;;;16.42;40.77;100409.48;1685290;81;21016;-65
2021/10/19 03:03:51;;;;;;;21.97;10.20;;;;;;;16.32;41.05;100411.80;1659498;84;21828;-65
2021/10/19 03:06:18;;;;;;;14.23;10.18;;;;;;;16.22;41.24;100407.84;1628936;86;21493;-69
2021/10/19 03:08:44;;;;;;;16.87;11.18;;;;;;;16.17;41.56;100412.12;1610522;87;21041;-66
2021/10/19 03:11:11;;;;;;;17.87;11.03;;;;;;;16.42;41.20;100410.80;1660475;84;21121;-65
2021/10/19 03:13:37;;;;;;;16.17;10.55;;;;;;;16.54;40.98;100405.10;1658235;84;21333;-65
2021/10/19 03:16:04;;;;;;;15.18;10.28;;;;;;;16.59;41.03;100399.18;1628317;86;22270;-66
2021/10/19 03:18:31;;;;;;;14.47;10.05;;;;;;;16.52;41.15;100399.27;1608031;87;21537;-65
2021/10/19 03:20:57;;;;;;;15.18;10.63;;;;;;;16.67;40.89;100399.72;1623938;87;21093;-66
2021/10/19 03:23:24;;;;;;;14.00;10.48;;;;;;;16.68;40.90;100396.05;1616962;87;21007;-65
2021/10/19 03:25:52;;;;;;;18.00;10.93;;;;;;;16.62;41.03;100402.70;1609415;87;21066;-65
2021/10/19 03:28:19;;;;;;;16.07;10.82;;;;;;;16.59;41.13;100403.13;1630091;86;22200;-66
2021/10/19 03:30:45;;;;;;;17.77;10.90;;;;;;;16.67;41.10;100402.34;1611975;87;20997;-65
2021/10/19 03:33:13;;;;;;;14.50;10.15;;;;;;;16.75;41.06;100405.23;1629193;86;21137;-69
2021/10/19 03:35:39;;;;;;;16.80;11.03;;;;;;;16.66;41.30;100409.13;1615927;87;21163;-61
2021/10/19 03:38:07;;;;;;;14.80;9.88;;;;;;;16.58;41.46;100407.59;1622881;86;21480;-65
2021/10/19 03:40:33;;;;;;;16.27;11.18;;;;;;;16.76;41.26;100412.89;1631308;86;21251;-72
2021/10/19 03:43:00;;;;;;;16.42;10.60;;;;;;;16.98;40.96;100407.98;1595689;87;21000;-72
2021/10/19 03:45:27;;;;;;;17.92;10.60;;;;;;;17.00;40.87;100411.70;1627730;87;21026;-64
2021/10/19 03:47:55;;;;;;;17.90;10.88;;;;;;;16.99;40.84;100409.59;1611718;87;21511;-65
2021/10/19 03:50:22;;;;;;;16.48;10.25;;;;;;;16.93;40.98;100410.48;1632953;86;21504;-65
2021/10/19 03:52:49;;;;;;;16.05;10.03;;;;;;;16.99;41.03;100410.10;1612133;87;21157;-66
2021/10/19 03:55:15;;;;;;;22.25;11.45;;;;;;;16.90;41.26;100416.19;1617964;86;21122;-65
2021/10/19 03:57:42;;;;;;;19.90;11.88;;;;;;;16.90;41.40;100414.88;1615682;87;21132;-65
2021/10/19 04:00:10;;;;;;;18.35;10.60;;;;;;;16.92;41.60;100422.02;1618473;86;21186;-65
2021/10/19 04:02:39;;;;;;;14.93;10.65;;;;;;;17.03;41.63;100417.84;1621651;86;21041;-71
2021/10/19 04:05:07;;;;;;;15.63;10.30;;;;;;;16.96;42.06;100419.75;1613820;88;21106;-64
2021/10/19 04:07:35;;;;;;;16.62;10.30;;;;;;;16.83;42.39;100430.45;1643189;85;21025;-66
2021/10/19 04:10:04;;;;;;;15.98;10.80;;;;;;;16.88;42.68;100418.73;1670724;83;20996;-65
2021/10/19 04:12:30;;;;;;;19.73;11.38;;;;;;;17.08;42.71;100427.72;1681428;83;21536;-69
2021/10/19 04:14:57;;;;;;;16.40;11.20;;;;;;;17.03;43.17;100437.59;1672310;83;20979;-72
2021/10/19 04:17:24;;;;;;;14.85;10.40;;;;;;;17.03;43.53;100437.08;1682239;83;21173;-67
2021/10/19 04:19:51;;;;;;;16.62;11.30;;;;;;;17.06;43.87;100435.84;1676887;83;21552;-64
2021/10/19 04:22:17;;;;;;;19.57;12.15;;;;;;;17.05;44.28;100442.63;1677125;83;21431;-66
2021/10/19 04:24:44;;;;;;;17.92;12.05;;;;;;;17.07;44.58;100449.30;1677380;83;21565;-66
2021/10/19 04:27:10;;;;;;;17.92;11.63;;;;;;;16.95;44.98;100450.55;1676155;83;21022;-71
2021/10/19 04:29:37;;;;;;;17.82;11.50;;;;;;;17.04;45.27;100449.73;1676061;83;21143;-67
2021/10/19 04:32:04;;;;;;;15.80;10.98;;;;;;;17.10;45.34;100451.50;1678087;83;21434;-66
2021/10/19 04:34:31;;;;;;;17.95;10.65;;;;;;;17.05;45.91;100459.27;1677569;83;20901;-69
2021/10/19 04:36:57;;;;;;;19.05;10.65;;;;;;;17.00;46.48;100460.42;1677056;83;21482;-68
2021/10/19 04:39:24;;;;;;;17.37;11.12;;;;;;;17.05;46.80;100453.17;1668114;83;21484;-70
2021/10/19 04:41:51;;;;;;;18.92;11.53;;;;;;;17.04;47.18;100466.86;1677952;83;21126;-68
2021/10/19 04:44:17;;;;;;;13.90;9.48;;;;;;;17.06;47.62;100459.55;1677954;83;20944;-67
2021/10/19 04:46:44;;;;;;;16.35;9.03;;;;;;;16.99;48.27;100465.41;1676848;83;21008;-76
2021/10/19 04:49:10;;;;;;;16.10;9.90;;;;;;;17.12;48.41;100466.58;1677263;83;21364;-65
2021/10/19 04:51:37;;;;;;;14.50;10.55;;;;;;;17.19;48.65;100470.44;1677217;83;21588;-70
2021/10/19 04:54:03;;;;;;;17.82;9.98;;;;;;;17.34;48.70;100476.12;1677239;83;21123;-64
2021/10/19 04:56:31;;;;;;;16.73;9.38;;;;;;;17.31;49.33;100470.48;1668060;83;20948;-65
2021/10/19 04:58:58;;;;;;;13.98;9.28;;;;;;;17.25;50.04;100474.31;1677499;83;20928;-67
2021/10/19 05:01:25;;;;;;;13.83;9.38;;;;;;;17.32;50.28;100474.75;1675653;83;21956;-65
2021/10/19 05:03:53;;;;;;;14.93;9.78;;;;;;;17.36;50.41;100482.51;1665157;84;21023;-65
2021/10/19 05:06:19;;;;;;;14.65;8.75;;;;;;;17.24;51.07;100483.77;1669584;84;21825;-64
2021/10/19 05:08:46;;;;;;;11.93;8.40;;;;;;;17.02;52.51;100489.47;1669892;84;20953;-66
2021/10/19 05:11:14;;;;;;;13.68;9.03;;;;;;;17.19;52.67;100499.41;1668949;84;21043;-64
2021/10/19 05:13:40;;;;;;;15.98;10.15;;;;;;;17.19;52.92;100494.94;1669776;84;21111;-75
2021/10/19 05:16:07;;;;;;;14.60;9.83;;;;;;;17.09;53.52;100502.58;1669356;84;21281;-67
2021/10/19 05:18:35;;;;;;;11.25;8.50;;;;;;;17.01;54.63;100504.19;1659426;84;21518;-64
2021/10/19 05:21:01;;;;;;;13.20;8.13;;;;;;;17.19;54.29;100510.75;1669314;84;20981;-74
2021/10/19 05:23:28;;;;;;;11.12;7.47;;;;;;;17.05;55.33;100517.21;1669176;84;21334;-64
2021/10/19 05:25:55;;;;;;;12.20;8.18;;;;;;;17.09;55.52;100517.06;1669396;84;21082;-75
2021/10/19 05:28:21;;;;;;;11.48;7.90;;;;;;;17.03;56.26;100524.52;1661883;84;21045;-63
2021/10/19 05:30:48;;;;;;;11.70;7.00;;;;;;;17.13;56.09;100524.02;1670053;84;22127;-63
2021/10/19 05:33:15;;;;;;;9.35;5.95;;;;;;;17.17;55.70;100532.57;1668273;84;21418;-66
2021/10/19 05:35:41;;;;;;;8.90;5.85;;;;;;;17.01;56.03;100533.95;1670324;84;21165;-63
2021/10/19 05:38:08;;;;;;;11.30;7.28;;;;;;;16.83;57.31;100535.77;1668676;84;21126;-71
2021/10/19 05:40:35;;;;;;;9.48;5.95;;;;;;;16.80;57.45;100533.56;1659279;84;22347;-64
2021/10/19 05:43:01;;;;;;;8.05;5.62;;;;;;;16.83;56.98;100539.20;1669909;84;21093;-65
2021/10/19 05:45:30;;;;;;;8.93;4.78;;;;;;;16.89;56.38;100534.88;1669128;84;20952;-63
2021/10/19 05:47:57;;;;;;;8.43;5.05;;;;;;;16.90;56.35;100545.73;1669811;84;21051;-65
2021/10/19 05:50:24;;;;;;;8.25;4.92;;;;;;;16.95;55.59;100549.81;1669383;84;21028;-67
2021/10/19 05:52:50;;;;;;;6.72;4.60;;;;;;;16.88;55.49;100546.44;1669813;84;21059;-66
2021/10/19 05:55:17;;;;;;;6.33;4.05;;;;;;;16.72;55.55;100555.16;1668757;84;22091;-73
2021/10/19 05:57:44;;;;;;;7.70;4.65;;;;;;;16.65;55.58;100558.35;1672260;84;21031;-67
2021/10/19 06:00:11;;;;;;;7.60;4.12;;;;;;;16.50;55.73;100557.87;1671860;84;21055;-73
2021/10/19 06:02:42;;;;;;;9.38;4.20;;;;;;;16.44;55.83;100552.14;1669925;84;21074;-63
2021/10/19 06:05:08;;;;;;;7.05;3.77;;;;;;;16.63;55.16;100550.37;1669735;84;21617;-64
2021/10/19 06:07:35;;;;;;;6.90;3.92;;;;;;;16.56;55.71;100550.45;1670469;84;21163;-65
2021/10/19 06:10:03;;;;;;;7.75;4.33;;;;;;;16.73;54.92;100554.16;1671490;84;20984;-62
2021/10/19 06:12:31;;;;;;;6.92;3.92;;;;;;;16.76;54.33;100552.93;1669420;84;21019;-62
2021/10/19 06:14:59;;;;;;;5.87;3.60;;;;;;;16.53;54.69;100557.45;1665004;84;21083;-68
2021/10/19 06:17:27;;;;;;;5.95;3.85;;;;;;;16.73;54.64;100559.42;1664470;85;21039;-65
2021/10/19 06:19:53;;;;;;;6.10;4.08;;;;;;;16.80;54.31;100562.52;1669718;84;21179;-63
2021/10/19 06:22:20;;;;;;;10.85;4.28;;;;;;;16.87;53.85;100561.95;1668724;84;20901;-73
2021/10/19 06:24:46;;;;;;;6.92;3.92;;;;;;;16.87;54.13;100560.13;1669575;84;21017;-64
2021/10/19 06:27:12;;;;;;;7.58;4.08;;;;;;;16.88;54.78;100555.66;1668416;84;21060;-66
2021/10/19 06:29:39;;;;;;;6.87;4.47;;;;;;;16.96;55.57;100558.80;1669610;84;21142;-62
2021/10/19 06:32:06;;;;;;;8.75;4.12;;;;;;;17.05;55.34;100569.05;1670926;84;21195;-66
2021/10/19 06:34:32;;;;;;;7.45;4.67;;;;;;;16.90;56.08;100561.01;1637705;86;21002;-71
2021/10/19 06:36:59;;;;;;;8.20;4.72;;;;;;;17.26;55.53;100561.53;1619223;86;21160;-62
2021/10/19 06:39:26;;;;;;;6.65;4.17;;;;;;;17.16;54.48;100559.11;1617776;86;21005;-64
2021/10/19 06:41:52;;;;;;;6.95;4.17;;;;;;;17.50;53.18;100552.45;1618718;86;21152;-64
2021/10/19 06:44:20;;;;;;;7.40;4.40;;;;;;;17.51;52.40;100556.72;1617527;86;21305;-64
2021/10/19 06:46:48;;;;;;;7.20;3.70;;;;;;;17.54;52.01;100557.59;1617620;86;21045;-74
2021/10/19 06:49:14;;;;;;;6.17;3.98;;;;;;;17.54;52.43;100566.82;1617098;86;21143;-71
2021/10/19 06:51:41;;;;;;;7.28;4.15;;;;;;;17.57;52.96;100568.99;1618138;86;21128;-63
2021/10/19 06:54:08;;;;;;;8.53;4.72;;;;;;;17.74;54.01;100562.09;1619151;86;21504;-64
2021/10/19 06:56:34;;;;;;;6.97;4.37;;;;;;;18.13;53.49;100568.41;1632535;86;21163;-71
2021/10/19 06:59:01;;;;;;;7.33;4.37;;;;;;;18.38;53.69;100566.41;1621775;86;21494;-64
2021/10/19 07:01:27;;;;;;;7.37;4.15;;;;;;;18.62;53.02;100565.91;1638038;86;20976;-66
2021/10/19 07:03:54;;;;;;;7.60;4.33;;;;;;;18.33;54.78;100567.58;1633182;86;22425;-62
2021/10/19 07:06:20;;;;;;;6.83;3.53;;;;;;;18.38;54.23;100569.05;1639008;86;21250;-63
2021/10/19 07:08:48;;;;;;;6.47;4.03;;;;;;;18.56;52.63;100573.45;1639674;86;21247;-67
2021/10/19 07:11:14;;;;;;;6.73;4.30;;;;;;;18.63;52.12;100587.31;1640814;86;21613;-72
2021/10/19 07:13:41;;;;;;;7.90;4.07;;;;;;;18.79;51.13;100582.42;1639176;85;21168;-66
2021/10/19 07:16:07;;;;;;;9.13;4.23;;;;;;;19.07;50.01;100578.59;1639688;86;21330;-66
2021/10/19 07:18:34;;;;;;;6.63;4.10;;;;;;;19.31;48.71;100579.87;1637162;85;21833;-70
2021/10/19 07:21:00;;;;;;;6.77;4.10;;;;;;;19.19;48.79;100579.37;1639067;86;21271;-64
2021/10/19 07:23:27;;;;;;;7.07;4.20;;;;;;;19.44;49.35;100577.79;1636440;86;21451;-66
2021/10/19 07:25:54;;;;;;;6.67;4.20;;;;;;;19.13;50.05;100584.28;1634057;85;21776;-65
2021/10/19 07:28:20;;;;;;;7.73;4.27;;;;;;;19.83;48.29;100579.36;1636731;86;21186;-65
2021/10/19 07:30:47;;;;;;;6.57;4.20;;;;;;;19.98;46.44;100586.78;1634976;85;21182;-64
2021/10/19 07:33:13;;;;;;;5.97;3.90;;;;;;;20.07;45.90;100585.34;1620958;88;21421;-65
2021/10/19 07:35:40;;;;;;;6.13;3.83;;;;;;;20.22;45.57;100586.13;1639134;86;21196;-70
2021/10/19 07:38:06;;;;;;;7.13;4.37;;;;;;;20.55;45.65;100586.72;1632135;86;21131;-65
2021/10/19 07:40:33;;;;;;;7.47;4.77;;;;;;;20.95;45.30;100581.77;1616200;88;21149;-67
2021/10/19 07:42:59;;;;;;;7.50;4.40;;;;;;;21.34;46.04;100580.45;1615603;88;21352;-63
2021/10/19 07:45:26;;;;;;;8.53;4.50;;;;;;;22.24;45.42;100579.05;1616883;88;21264;-67
2021/10/19 07:47:53;;;;;;;5.37;3.70;;;;;;;22.24;45.42;100579.05;1615381;88;22004;-66
2021/10/19 07:50:21;;;;;;;6.83;4.10;;;;;;;22.93;45.69;100585.42;1616542;88;21858;-69
2021/10/19 07:52:50;;;;;;;5.77;4.00;;;;;;;23.68;43.63;100580.20;1617304;88;20925;-68
2021/10/19 07:55:16;;;;;;;8.47;4.60;;;;;;;24.11;41.02;100582.67;1614555;86;21180;-68
2021/10/19 07:57:48;;;;;;;6.73;3.77;;;;;;;24.47;39.61;100584.33;1624790;85;21171;-68
2021/10/19 08:00:17;;;;;;;7.33;5.03;;;;;;;24.58;38.95;100585.09;1627454;86;21196;-68
2021/10/19 08:02:43;;;;;;;7.23;3.93;;;;;;;24.98;37.87;100590.11;1624975;86;21093;-69
2021/10/19 08:05:14;;;;;;;5.70;3.37;;;;;;;25.32;36.93;100582.28;1628337;86;21664;-67
2021/10/19 08:07:49;;;;;;;6.67;3.62;;;;;;;25.54;36.29;100579.80;1632681;86;21342;-70
2021/10/19 08:10:21;;;;;;;4.87;3.40;;;;;;;25.77;35.58;100580.47;1621822;87;21178;-68
2021/10/19 08:12:50;;;;;;;6.67;3.05;;;;;;;26.28;34.16;100582.80;1621857;86;21010;-67
2021/10/19 08:15:16;;;;;;;5.63;3.67;;;;;;;26.40;33.15;100584.59;1622081;87;21028;-67
2021/10/19 08:17:45;;;;;;;5.30;2.87;;;;;;;26.58;33.04;100593.80;1612516;86;20970;-66
2021/10/19 08:20:12;;;;;;;4.47;2.70;;;;;;;26.41;33.04;100596.87;1622050;86;22218;-70
2021/10/19 08:22:39;;;;;;;5.10;2.97;;;;;;;26.74;31.91;100597.12;1622094;86;21849;-66
2021/10/19 08:25:08;;;;;;;6.03;4.00;;;;;;;26.88;31.61;100590.57;1622236;86;21093;-66
2021/10/19 08:27:36;;;;;;;7.10;3.20;;;;;;;27.17;30.63;100593.23;1621119;88;21106;-66
2021/10/19 08:30:04;;;;;;;4.43;2.33;;;;;;;27.14;30.73;100588.45;1621338;88;21001;-65
2021/10/19 08:32:32;;;;;;;4.10;2.17;;;;;;;27.66;29.63;100593.42;1621772;87;21586;-66
2021/10/19 08:34:58;;;;;;;3.17;1.73;;;;;;;28.23;28.59;100589.39;1622836;86;21145;-66
2021/10/19 08:37:25;;;;;;;3.27;1.63;;;;;;;28.63;27.09;100591.14;1621453;86;21436;-66
2021/10/19 08:39:51;;;;;;;3.10;1.90;;;;;;;28.90;26.46;100583.12;1621722;86;21563;-67
2021/10/19 08:42:18;;;;;;;3.40;1.80;;;;;;;29.09;25.84;100584.39;1612582;86;21031;-67
2021/10/19 08:44:45;;;;;;;3.17;1.60;;;;;;;28.99;25.53;100587.30;1609792;86;20987;-68
2021/10/19 08:47:12;;;;;;;4.23;1.90;;;;;;;29.07;24.67;100587.94;1621112;86;21116;-68
2021/10/19 08:49:38;;;;;;;3.63;1.70;;;;;;;28.94;24.17;100590.03;1623975;86;20969;-67
2021/10/19 08:52:05;;;;;;;2.90;1.70;;;;;;;28.56;24.01;100598.23;1614730;86;20952;-68
2021/10/19 08:54:33;;;;;;;4.23;1.90;;;;;;;28.16;24.04;100593.78;1615793;87;20992;-68
2021/10/19 08:57:00;;;;;;;3.63;1.97;;;;;;;27.89;24.38;100597.94;1614877;86;21626;-67
2021/10/19 08:59:27;;;;;;;3.87;1.80;;;;;;;28.16;24.80;100597.80;1617323;87;21088;-68
2021/10/19 09:01:56;;;;;;;3.87;2.03;;;;;;;28.12;24.29;100588.75;1619730;86;21042;-68
2021/10/19 09:04:27;;;;;;;4.00;2.20;;;;;;;27.76;23.62;100591.95;1657432;84;21477;-69
2021/10/19 09:06:54;;;;;;;5.45;2.45;;;;;;;27.21;23.46;100600.16;1675522;84;21177;-67
2021/10/19 09:09:24;;;;;;;3.60;1.70;;;;;;;26.73;23.42;100590.19;1672363;84;21577;-67
2021/10/19 09:11:49;;;;;;;4.47;1.93;;;;;;;26.20;24.23;100598.09;1679163;84;22813;-67
2021/10/19 09:14:17;;;;;;;2.57;1.30;;;;;;;26.32;24.86;100599.07;1663522;84;20991;-67
2021/10/19 09:16:51;;;;;;;2.90;1.30;;;;;;;26.42;23.66;100594.45;1678012;84;20981;-67
2021/10/19 09:19:20;;;;;;;2.97;1.60;;;;;;;26.44;22.98;100585.63;1675554;84;22207;-67
2021/10/19 09:21:54;;;;;;;3.87;1.50;;;;;;;26.31;23.34;100587.59;1677528;84;22379;-67
2021/10/19 09:24:27;;;;;;;3.77;1.97;;;;;;;25.94;23.89;100582.78;1660358;84;21137;-66
2021/10/19 09:27:05;;;;;;;3.77;1.90;;;;;;;25.82;24.03;100585.00;1660596;84;21023;-68
2021/10/19 09:29:39;;;;;;;5.00;3.30;;;;;;;25.84;23.42;100582.33;1664158;85;22409;-68
2021/10/19 09:32:07;;;;;;;3.60;1.90;;;;;;;25.78;23.84;100586.09;1656837;85;21618;-67
2021/10/19 09:34:36;;;;;;;3.47;1.80;;;;;;;25.98;23.50;100578.48;1661355;85;21099;-66
2021/10/19 09:37:05;;;;;;;5.20;1.50;;;;;;;26.43;23.29;100577.32;1664226;85;21865;-67
2021/10/19 09:39:49;;;;;;;3.17;1.37;;;;;;;26.60;22.39;100575.61;1665539;85;21122;-65
2021/10/19 09:42:27;;;;;;;4.80;2.40;;;;;;;26.53;22.33;100573.01;1666960;85;21138;-67
2021/10/19 09:44:59;;;;;;;2.50;1.33;;;;;;;26.28;22.74;100569.98;1664916;85;20952;-66
2021/10/19 09:47:38;;;;;;;4.60;2.30;;;;;;;25.94;22.95;100576.90;1668502;85;21060;-67
2021/10/19 09:50:06;;;;;;;4.57;1.63;;;;;;;25.43;22.91;100575.83;1663090;85;21146;-69
2021/10/19 09:52:37;;;;;;;6.10;2.13;;;;;;;24.86;22.80;100583.73;1656684;85;20945;-67
2021/10/19 09:55:10;;;;;;;4.75;2.10;;;;;;;24.24;23.08;100591.46;1661523;84;21486;-66
2021/10/19 09:57:42;;;;;;;5.17;2.50;;;;;;;24.21;23.34;100582.70;1672543;84;21077;-67
2021/10/19 10:00:10;;;;;;;4.13;2.10;;;;;;;24.65;23.06;100573.63;1667072;84;20992;-67
2021/10/19 10:02:40;;;;;;;3.20;1.10;;;;;;;25.08;22.87;100565.25;1670722;84;21156;-67
2021/10/19 10:05:08;;;;;;;3.53;1.83;;;;;;;25.67;22.42;100571.17;1639004;85;21518;-68
2021/10/19 10:07:36;;;;;;;2.67;1.20;;;;;;;25.88;22.20;100562.00;1635979;85;21007;-68
2021/10/19 10:10:04;;;;;;;2.50;1.13;;;;;;;26.37;21.83;100568.31;1617380;87;21564;-69
2021/10/19 10:12:32;;;;;;;5.67;1.30;;;;;;;26.63;21.59;100559.52;1601138;86;22366;-66
2021/10/19 10:14:58;;;;;;;2.73;1.37;;;;;;;27.05;21.26;100559.34;1678022;84;22083;-68
2021/10/19 10:17:26;;;;;;;3.87;1.77;;;;;;;27.16;20.60;100557.65;1671187;84;21063;-67
2021/10/19 10:19:55;;;;;;;4.57;1.77;;;;;;;26.89;20.13;100559.52;1663619;85;21138;-68
2021/10/19 10:22:28;;;;;;;3.40;1.20;;;;;;;26.55;20.18;100561.48;1675895;84;21003;-64
2021/10/19 10:25:14;;;;;;;4.10;1.23;;;;;;;25.79;20.15;100565.52;1640018;85;20968;-68
2021/10/19 10:27:42;;;;;;;3.10;1.07;;;;;;;25.65;20.60;100568.00;1661983;84;21138;-67
2021/10/19 10:30:25;;;;;;;1.93;0.80;;;;;;;25.71;20.67;100564.20;1670280;85;21083;-64
2021/10/19 10:32:56;;;;;;;2.10;0.80;;;;;;;26.02;20.81;100567.49;1670129;85;20952;-67
2021/10/19 10:35:24;;;;;;;3.20;1.53;;;;;;;26.31;20.50;100572.09;1668576;85;21050;-68
2021/10/19 10:37:56;;;;;;;3.02;0.80;;;;;;;26.21;19.46;100568.95;1671011;85;21192;-65
2021/10/19 10:40:40;;;;;;;2.17;0.90;;;;;;;26.10;19.72;100567.44;1671055;85;21140;-65
2021/10/19 10:43:28;;;;;;;4.33;0.80;;;;;;;26.09;19.64;100566.64;1671990;85;21130;-67
2021/10/19 10:46:15;;;;;;;2.17;0.80;;;;;;;26.38;19.41;100568.02;1671543;85;20963;-66
2021/10/19 10:48:43;;;;;;;1.90;0.73;;;;;;;26.60;19.29;100572.14;1664591;85;21464;-66
2021/10/19 10:51:11;;;;;;;1.70;0.70;;;;;;;26.79;19.29;100561.52;1666790;84;21313;-65
2021/10/19 10:53:45;;;;;;;2.57;0.90;;;;;;;26.93;19.52;100565.91;1666755;84;21111;-65
2021/10/19 10:56:13;;;;;;;6.80;2.10;;;;;;;27.06;19.06;100573.00;1667501;85;20984;-66
2021/10/19 10:58:41;;;;;;;10.83;3.80;;;;;;;26.88;17.81;100565.16;1666610;84;21092;-69
2021/10/19 11:01:27;;;;;;;6.40;2.80;;;;;;;26.24;17.84;100575.63;1672434;84;21008;-67
2021/10/19 11:04:08;;;;;;;2.20;1.10;;;;;;;25.56;18.10;100577.09;1663245;84;21746;-67
2021/10/19 11:06:40;;;;;;;2.67;0.83;;;;;;;24.88;18.51;100582.91;1668497;84;21235;-66
2021/10/19 11:09:12;;;;;;;2.57;0.97;;;;;;;24.15;19.15;100585.08;1669234;84;21530;-67
2021/10/19 11:11:43;;;;;;;2.00;1.00;;;;;;;23.67;19.78;100584.44;1645945;85;21122;-65
2021/10/19 11:14:15;;;;;;;2.30;1.03;;;;;;;23.53;20.52;100582.79;1675483;84;20984;-70
2021/10/19 11:16:49;;;;;;;2.87;1.30;;;;;;;23.63;20.55;100580.14;1659690;84;21095;-67
2021/10/19 11:19:24;;;;;;;1.80;0.80;;;;;;;23.76;20.26;100573.57;1664344;84;21934;-69
2021/10/19 11:21:54;;;;;;;3.47;0.97;;;;;;;24.17;20.36;100566.44;1666769;84;21612;-68
2021/10/19 11:24:22;;;;;;;1.93;0.77;;;;;;;24.57;20.01;100571.51;1667929;84;22430;-68